• Join FlightAware (Why Join?)
  • Login
  • US Flag 
11:05AM EST


 

Airport Tracker/Info


-or-


 

Live Flight TrackerFlight Track Log ✈ KAP927 ✈ 03-Jul-2013 ✈ KALB - KOGS

Flight Track Log - Related Links

Times and Time Zones

All times are in EDT time to prevent confusion due to time zone crossing. See the KAP927 flight status page for this flight to view local times or setup timezone preferences in your user account.

Time Position Orientation Groundspeed Altitude Reporting Facility
EDT Latitude Longitude Course Direction KTS MPH feet Rate Location/Type
07:09PM 43.5261 -74.4875 329° Northwest 151 174 10,000  Level Boston Center
07:10PM 43.5653 -74.5203 329° Northwest 157 181 10,000  Level Boston Center
07:11PM 43.6042 -74.5503 331° Northwest 163 188 10,000  Level Boston Center
07:12PM 43.6411 -74.5803 330° Northwest 163 188 10,000  Level Boston Center
07:13PM 43.6781 -74.6133 327° Northwest 163 188 10,000  Level Boston Center
07:14PM 43.7172 -74.6433 331° Northwest 163 188 10,000  Level Boston Center
07:15PM 43.7288 -74.6292 329° Northwest  Level Estimated
07:15PM 43.7561 -74.6736 331° Northwest 163 188 10,000  Level Boston Center
07:16PM 43.7889 -74.7036 327° Northwest 163 188 10,000  Level Boston Center
07:17PM 43.8258 -74.7336 330° Northwest 163 188 10,000  Level Boston Center
07:18PM 43.8628 -74.7639 329° Northwest 163 188 10,000  Level Boston Center
07:19PM 43.8994 -74.8000 325° Northwest 163 188 10,000  Level Boston Center
07:20PM 43.9364 -74.8272 332° Northwest 163 188 10,000  Level Boston Center
07:21PM 43.9756 -74.8578 331° Northwest 163 188 10,000 -240 Level Boston Center
07:22PM 44.0122 -74.8911 327° Northwest 163 188 9,600 -600 Descending Boston Center
07:23PM 44.0572 -74.9275 330° Northwest 173 199 8,800 -720 Descending Boston Center
07:24PM 44.1044 -74.9642 331° Northwest 179 206 8,200 -600 Descending Boston Center
07:25PM 44.1517 -74.9981 333° Northwest 179 206 7,600 -660 Descending Boston Center
07:26PM 44.1967 -75.0319 332° Northwest 179 206 6,900 -720 Descending Boston Center
07:27PM 44.2397 -75.0686 329° Northwest 179 206 6,200 -600 Descending Boston Center
07:28PM 44.2928 -75.1144 328° Northwest 179 206 5,600 -540 Descending Boston Center
07:29PM 44.3358 -75.1483 331° Northwest 179 206 5,100 -600 Descending Boston Center
07:30PM 44.3789 -75.1792 333° Northwest 179 206 4,500 -540 Descending Boston Center
07:31PM 44.4217 -75.2131 331° Northwest 179 206 4,100 -480 Descending Boston Center
07:32PM 44.4625 -75.2500 327° Northwest 179 206 3,600 -540 Descending Boston Center